sensor_id;sensor_type;location;lat;lon;timestamp;P1;durP1;ratioP1;P2;durP2;ratioP2
41927;SDS011;27616;51.420;6.788;2022-08-14T00:00:42;7.93;;;4.55;;
41927;SDS011;27616;51.420;6.788;2022-08-14T00:03:16;5.55;;;4.28;;
41927;SDS011;27616;51.420;6.788;2022-08-14T00:05:51;5.25;;;4.05;;
41927;SDS011;27616;51.420;6.788;2022-08-14T00:08:18;7.43;;;4.25;;
41927;SDS011;27616;51.420;6.788;2022-08-14T00:10:44;7.25;;;4.20;;
41927;SDS011;27616;51.420;6.788;2022-08-14T00:13:11;5.20;;;3.97;;
41927;SDS011;27616;51.420;6.788;2022-08-14T00:15:39;5.23;;;4.03;;
41927;SDS011;27616;51.420;6.788;2022-08-14T00:18:08;5.57;;;4.10;;
41927;SDS011;27616;51.420;6.788;2022-08-14T00:20:36;5.18;;;3.28;;
41927;SDS011;27616;51.420;6.788;2022-08-14T00:23:05;5.55;;;4.25;;
41927;SDS011;27616;51.420;6.788;2022-08-14T00:25:32;6.25;;;4.05;;
41927;SDS011;27616;51.420;6.788;2022-08-14T00:27:58;7.00;;;4.18;;
41927;SDS011;27616;51.420;6.788;2022-08-14T00:30:25;6.78;;;4.20;;
41927;SDS011;27616;51.420;6.788;2022-08-14T00:32:51;6.20;;;4.30;;
41927;SDS011;27616;51.420;6.788;2022-08-14T00:35:17;6.07;;;4.20;;
41927;SDS011;27616;51.420;6.788;2022-08-14T00:37:44;5.78;;;3.85;;
41927;SDS011;27616;51.420;6.788;2022-08-14T00:40:12;5.15;;;4.03;;
41927;SDS011;27616;51.420;6.788;2022-08-14T00:42:39;5.25;;;4.00;;
41927;SDS011;27616;51.420;6.788;2022-08-14T00:45:06;9.18;;;3.90;;
41927;SDS011;27616;51.420;6.788;2022-08-14T00:47:34;5.38;;;4.13;;
41927;SDS011;27616;51.420;6.788;2022-08-14T00:50:00;7.88;;;4.30;;
41927;SDS011;27616;51.420;6.788;2022-08-14T00:52:28;5.88;;;4.43;;
41927;SDS011;27616;51.420;6.788;2022-08-14T00:54:56;6.17;;;4.20;;
41927;SDS011;27616;51.420;6.788;2022-08-14T00:57:24;5.80;;;4.35;;
41927;SDS011;27616;51.420;6.788;2022-08-14T01:02:18;5.53;;;4.38;;
41927;SDS011;27616;51.420;6.788;2022-08-14T01:04:50;6.68;;;4.70;;
41927;SDS011;27616;51.420;6.788;2022-08-14T01:07:18;5.55;;;4.63;;
41927;SDS011;27616;51.420;6.788;2022-08-14T01:09:46;5.07;;;3.97;;
41927;SDS011;27616;51.420;6.788;2022-08-14T01:12:14;8.18;;;4.93;;
41927;SDS011;27616;51.420;6.788;2022-08-14T01:14:42;6.80;;;4.80;;
41927;SDS011;27616;51.420;6.788;2022-08-14T01:17:08;7.03;;;4.57;;
41927;SDS011;27616;51.420;6.788;2022-08-14T01:19:34;5.68;;;4.05;;
41927;SDS011;27616;51.420;6.788;2022-08-14T01:22:19;4.32;;;3.92;;
41927;SDS011;27616;51.420;6.788;2022-08-14T01:24:45;8.68;;;4.20;;
41927;SDS011;27616;51.420;6.788;2022-08-14T01:27:16;5.93;;;4.30;;
41927;SDS011;27616;51.420;6.788;2022-08-14T01:29:44;7.38;;;4.50;;
41927;SDS011;27616;51.420;6.788;2022-08-14T01:32:11;7.97;;;4.00;;
41927;SDS011;27616;51.420;6.788;2022-08-14T01:34:37;4.82;;;4.07;;
41927;SDS011;27616;51.420;6.788;2022-08-14T01:37:03;9.40;;;4.57;;
41927;SDS011;27616;51.420;6.788;2022-08-14T01:39:30;5.82;;;3.88;;
41927;SDS011;27616;51.420;6.788;2022-08-14T01:41:57;6.28;;;4.30;;
41927;SDS011;27616;51.420;6.788;2022-08-14T01:44:26;6.85;;;4.25;;
41927;SDS011;27616;51.420;6.788;2022-08-14T01:46:57;5.25;;;4.53;;
41927;SDS011;27616;51.420;6.788;2022-08-14T01:49:24;9.63;;;4.40;;
41927;SDS011;27616;51.420;6.788;2022-08-14T01:51:51;5.28;;;4.20;;
41927;SDS011;27616;51.420;6.788;2022-08-14T01:54:21;6.13;;;4.60;;
41927;SDS011;27616;51.420;6.788;2022-08-14T01:56:52;6.18;;;4.63;;
41927;SDS011;27616;51.420;6.788;2022-08-14T01:59:23;7.68;;;4.80;;
41927;SDS011;27616;51.420;6.788;2022-08-14T02:01:58;6.20;;;4.47;;
41927;SDS011;27616;51.420;6.788;2022-08-14T02:04:31;6.78;;;4.85;;
41927;SDS011;27616;51.420;6.788;2022-08-14T02:06:59;6.18;;;4.60;;
41927;SDS011;27616;51.420;6.788;2022-08-14T02:09:27;5.18;;;4.53;;
41927;SDS011;27616;51.420;6.788;2022-08-14T02:11:57;6.15;;;4.65;;
41927;SDS011;27616;51.420;6.788;2022-08-14T02:14:23;5.97;;;4.80;;
41927;SDS011;27616;51.420;6.788;2022-08-14T02:16:49;8.13;;;4.97;;
41927;SDS011;27616;51.420;6.788;2022-08-14T02:19:18;5.37;;;4.83;;
41927;SDS011;27616;51.420;6.788;2022-08-14T02:21:51;6.63;;;4.95;;
41927;SDS011;27616;51.420;6.788;2022-08-14T02:24:19;7.63;;;5.10;;
41927;SDS011;27616;51.420;6.788;2022-08-14T02:29:15;6.93;;;5.10;;
41927;SDS011;27616;51.420;6.788;2022-08-14T02:31:53;7.00;;;4.90;;
41927;SDS011;27616;51.420;6.788;2022-08-14T02:34:25;6.20;;;4.53;;
41927;SDS011;27616;51.420;6.788;2022-08-14T02:37:00;6.35;;;4.75;;
41927;SDS011;27616;51.420;6.788;2022-08-14T02:39:28;6.63;;;5.20;;
41927;SDS011;27616;51.420;6.788;2022-08-14T02:41:55;8.68;;;4.80;;
41927;SDS011;27616;51.420;6.788;2022-08-14T02:44:24;6.43;;;5.03;;
41927;SDS011;27616;51.420;6.788;2022-08-14T02:46:51;6.47;;;5.30;;
41927;SDS011;27616;51.420;6.788;2022-08-14T02:49:18;6.85;;;5.00;;
41927;SDS011;27616;51.420;6.788;2022-08-14T02:51:52;7.30;;;5.03;;
41927;SDS011;27616;51.420;6.788;2022-08-14T02:54:19;7.07;;;5.10;;
41927;SDS011;27616;51.420;6.788;2022-08-14T02:56:57;7.38;;;5.25;;
41927;SDS011;27616;51.420;6.788;2022-08-14T02:59:25;6.10;;;5.07;;
41927;SDS011;27616;51.420;6.788;2022-08-14T03:01:54;6.07;;;4.93;;
41927;SDS011;27616;51.420;6.788;2022-08-14T03:04:21;7.60;;;5.22;;
41927;SDS011;27616;51.420;6.788;2022-08-14T03:06:48;7.03;;;5.43;;
41927;SDS011;27616;51.420;6.788;2022-08-14T03:09:14;6.85;;;5.35;;
41927;SDS011;27616;51.420;6.788;2022-08-14T03:11:41;6.20;;;5.00;;
41927;SDS011;27616;51.420;6.788;2022-08-14T03:14:09;6.28;;;5.03;;
41927;SDS011;27616;51.420;6.788;2022-08-14T03:16:37;6.47;;;5.10;;
41927;SDS011;27616;51.420;6.788;2022-08-14T03:19:05;7.47;;;5.78;;
41927;SDS011;27616;51.420;6.788;2022-08-14T03:21:33;7.68;;;4.93;;
41927;SDS011;27616;51.420;6.788;2022-08-14T03:24:01;7.45;;;5.35;;
41927;SDS011;27616;51.420;6.788;2022-08-14T03:26:28;5.88;;;5.05;;
41927;SDS011;27616;51.420;6.788;2022-08-14T03:28:54;7.15;;;5.00;;
41927;SDS011;27616;51.420;6.788;2022-08-14T03:31:20;10.13;;;5.93;;
41927;SDS011;27616;51.420;6.788;2022-08-14T03:33:48;6.50;;;5.27;;
41927;SDS011;27616;51.420;6.788;2022-08-14T03:36:16;6.93;;;4.97;;
41927;SDS011;27616;51.420;6.788;2022-08-14T03:38:45;6.57;;;5.35;;
41927;SDS011;27616;51.420;6.788;2022-08-14T03:41:15;8.35;;;5.30;;
41927;SDS011;27616;51.420;6.788;2022-08-14T03:43:46;6.40;;;5.53;;
41927;SDS011;27616;51.420;6.788;2022-08-14T03:46:13;7.18;;;5.63;;
41927;SDS011;27616;51.420;6.788;2022-08-14T03:48:40;7.47;;;5.13;;
41927;SDS011;27616;51.420;6.788;2022-08-14T03:51:08;6.65;;;5.88;;
41927;SDS011;27616;51.420;6.788;2022-08-14T03:53:39;8.82;;;5.38;;
41927;SDS011;27616;51.420;6.788;2022-08-14T03:56:09;8.85;;;5.88;;
41927;SDS011;27616;51.420;6.788;2022-08-14T03:58:40;7.53;;;5.55;;
41927;SDS011;27616;51.420;6.788;2022-08-14T04:01:10;6.82;;;5.38;;
41927;SDS011;27616;51.420;6.788;2022-08-14T04:03:44;8.00;;;5.45;;
41927;SDS011;27616;51.420;6.788;2022-08-14T04:06:10;9.18;;;5.75;;
41927;SDS011;27616;51.420;6.788;2022-08-14T04:08:37;7.22;;;5.80;;
41927;SDS011;27616;51.420;6.788;2022-08-14T04:11:04;8.82;;;6.10;;
41927;SDS011;27616;51.420;6.788;2022-08-14T04:13:33;6.90;;;5.57;;
41927;SDS011;27616;51.420;6.788;2022-08-14T04:16:01;7.72;;;5.82;;
41927;SDS011;27616;51.420;6.788;2022-08-14T04:18:33;7.78;;;6.13;;
41927;SDS011;27616;51.420;6.788;2022-08-14T04:21:04;7.93;;;5.80;;
41927;SDS011;27616;51.420;6.788;2022-08-14T04:23:30;6.85;;;5.60;;
41927;SDS011;27616;51.420;6.788;2022-08-14T04:25:57;6.47;;;5.70;;
41927;SDS011;27616;51.420;6.788;2022-08-14T04:28:24;7.18;;;6.13;;
41927;SDS011;27616;51.420;6.788;2022-08-14T04:30:50;7.18;;;5.80;;
41927;SDS011;27616;51.420;6.788;2022-08-14T04:33:16;7.50;;;6.13;;
41927;SDS011;27616;51.420;6.788;2022-08-14T04:35:42;6.95;;;6.05;;
41927;SDS011;27616;51.420;6.788;2022-08-14T04:38:09;8.45;;;6.22;;
41927;SDS011;27616;51.420;6.788;2022-08-14T04:40:54;8.55;;;5.95;;
41927;SDS011;27616;51.420;6.788;2022-08-14T04:43:39;8.52;;;6.35;;
41927;SDS011;27616;51.420;6.788;2022-08-14T04:48:36;7.90;;;5.88;;
41927;SDS011;27616;51.420;6.788;2022-08-14T04:51:03;7.22;;;6.20;;
41927;SDS011;27616;51.420;6.788;2022-08-14T04:53:30;8.45;;;6.82;;
41927;SDS011;27616;51.420;6.788;2022-08-14T04:55:58;7.50;;;6.55;;
41927;SDS011;27616;51.420;6.788;2022-08-14T04:58:25;8.63;;;6.10;;
41927;SDS011;27616;51.420;6.788;2022-08-14T05:00:53;6.78;;;6.07;;
41927;SDS011;27616;51.420;6.788;2022-08-14T05:03:20;8.48;;;6.35;;
41927;SDS011;27616;51.420;6.788;2022-08-14T05:05:50;7.72;;;5.93;;
41927;SDS011;27616;51.420;6.788;2022-08-14T05:08:17;8.30;;;6.40;;
41927;SDS011;27616;51.420;6.788;2022-08-14T05:10:45;8.45;;;6.93;;
41927;SDS011;27616;51.420;6.788;2022-08-14T05:13:15;7.35;;;6.38;;
41927;SDS011;27616;51.420;6.788;2022-08-14T05:15:41;8.25;;;6.70;;
41927;SDS011;27616;51.420;6.788;2022-08-14T05:18:10;9.13;;;6.73;;
41927;SDS011;27616;51.420;6.788;2022-08-14T05:20:48;7.90;;;6.90;;
41927;SDS011;27616;51.420;6.788;2022-08-14T05:23:16;8.45;;;6.93;;
41927;SDS011;27616;51.420;6.788;2022-08-14T05:25:46;8.73;;;6.45;;
41927;SDS011;27616;51.420;6.788;2022-08-14T05:28:15;10.10;;;6.57;;
41927;SDS011;27616;51.420;6.788;2022-08-14T05:30:46;8.43;;;6.97;;
41927;SDS011;27616;51.420;6.788;2022-08-14T05:33:14;7.90;;;6.60;;
41927;SDS011;27616;51.420;6.788;2022-08-14T05:35:46;10.07;;;7.22;;
41927;SDS011;27616;51.420;6.788;2022-08-14T05:38:13;9.50;;;7.00;;
41927;SDS011;27616;51.420;6.788;2022-08-14T05:40:41;10.82;;;7.68;;
41927;SDS011;27616;51.420;6.788;2022-08-14T05:43:08;10.20;;;6.90;;
41927;SDS011;27616;51.420;6.788;2022-08-14T05:45:34;8.35;;;7.45;;
41927;SDS011;27616;51.420;6.788;2022-08-14T05:48:01;8.98;;;7.25;;
41927;SDS011;27616;51.420;6.788;2022-08-14T05:50:28;11.63;;;7.95;;
41927;SDS011;27616;51.420;6.788;2022-08-14T05:52:55;8.73;;;7.13;;
41927;SDS011;27616;51.420;6.788;2022-08-14T05:55:21;8.23;;;6.93;;
41927;SDS011;27616;51.420;6.788;2022-08-14T05:57:48;10.43;;;6.97;;
41927;SDS011;27616;51.420;6.788;2022-08-14T06:00:22;7.93;;;7.13;;
41927;SDS011;27616;51.420;6.788;2022-08-14T06:02:50;8.55;;;7.10;;
41927;SDS011;27616;51.420;6.788;2022-08-14T06:05:16;7.95;;;7.15;;
41927;SDS011;27616;51.420;6.788;2022-08-14T06:07:42;7.75;;;6.40;;
41927;SDS011;27616;51.420;6.788;2022-08-14T06:10:08;8.98;;;6.65;;
41927;SDS011;27616;51.420;6.788;2022-08-14T06:12:35;9.63;;;7.32;;
41927;SDS011;27616;51.420;6.788;2022-08-14T06:15:02;8.63;;;6.95;;
41927;SDS011;27616;51.420;6.788;2022-08-14T06:17:30;9.15;;;6.85;;
41927;SDS011;27616;51.420;6.788;2022-08-14T06:19:56;7.72;;;6.68;;
41927;SDS011;27616;51.420;6.788;2022-08-14T06:22:22;7.60;;;6.63;;
41927;SDS011;27616;51.420;6.788;2022-08-14T06:24:48;8.38;;;6.90;;
41927;SDS011;27616;51.420;6.788;2022-08-14T06:27:14;7.05;;;6.35;;
41927;SDS011;27616;51.420;6.788;2022-08-14T06:29:40;7.70;;;6.90;;
41927;SDS011;27616;51.420;6.788;2022-08-14T06:32:06;7.13;;;6.35;;
41927;SDS011;27616;51.420;6.788;2022-08-14T06:34:32;7.15;;;6.40;;
41927;SDS011;27616;51.420;6.788;2022-08-14T06:36:58;9.18;;;7.22;;
41927;SDS011;27616;51.420;6.788;2022-08-14T06:39:24;10.73;;;6.90;;
41927;SDS011;27616;51.420;6.788;2022-08-14T06:41:50;7.72;;;6.93;;
41927;SDS011;27616;51.420;6.788;2022-08-14T06:44:15;9.15;;;7.38;;
41927;SDS011;27616;51.420;6.788;2022-08-14T06:46:42;7.97;;;6.95;;
41927;SDS011;27616;51.420;6.788;2022-08-14T06:49:07;8.02;;;7.00;;
41927;SDS011;27616;51.420;6.788;2022-08-14T06:51:34;8.10;;;6.68;;
41927;SDS011;27616;51.420;6.788;2022-08-14T06:54:00;8.23;;;6.63;;
41927;SDS011;27616;51.420;6.788;2022-08-14T06:56:26;8.02;;;7.15;;
41927;SDS011;27616;51.420;6.788;2022-08-14T06:58:52;8.70;;;7.43;;
41927;SDS011;27616;51.420;6.788;2022-08-14T07:01:18;8.98;;;7.05;;
41927;SDS011;27616;51.420;6.788;2022-08-14T07:04:02;9.27;;;6.93;;
41927;SDS011;27616;51.420;6.788;2022-08-14T07:06:47;8.50;;;7.13;;
41927;SDS011;27616;51.420;6.788;2022-08-14T07:09:13;8.52;;;7.00;;
41927;SDS011;27616;51.420;6.788;2022-08-14T07:11:40;7.88;;;7.07;;
41927;SDS011;27616;51.420;6.788;2022-08-14T07:14:06;7.78;;;6.70;;
41927;SDS011;27616;51.420;6.788;2022-08-14T07:16:32;7.53;;;6.68;;
41927;SDS011;27616;51.420;6.788;2022-08-14T07:18:58;7.68;;;6.72;;
41927;SDS011;27616;51.420;6.788;2022-08-14T07:21:24;7.35;;;6.65;;
41927;SDS011;27616;51.420;6.788;2022-08-14T07:23:50;8.48;;;6.57;;
41927;SDS011;27616;51.420;6.788;2022-08-14T07:26:16;7.28;;;6.30;;
41927;SDS011;27616;51.420;6.788;2022-08-14T07:28:42;7.93;;;6.65;;
41927;SDS011;27616;51.420;6.788;2022-08-14T07:31:10;6.97;;;6.28;;
41927;SDS011;27616;51.420;6.788;2022-08-14T07:33:43;7.28;;;6.47;;
41927;SDS011;27616;51.420;6.788;2022-08-14T07:36:11;8.85;;;7.07;;
41927;SDS011;27616;51.420;6.788;2022-08-14T07:38:38;8.35;;;7.45;;
41927;SDS011;27616;51.420;6.788;2022-08-14T07:41:08;7.60;;;6.80;;
41927;SDS011;27616;51.420;6.788;2022-08-14T07:43:35;8.60;;;6.80;;
41927;SDS011;27616;51.420;6.788;2022-08-14T07:46:02;7.65;;;6.68;;
41927;SDS011;27616;51.420;6.788;2022-08-14T07:48:29;8.15;;;7.25;;
41927;SDS011;27616;51.420;6.788;2022-08-14T07:50:55;7.38;;;6.60;;
41927;SDS011;27616;51.420;6.788;2022-08-14T07:53:21;8.32;;;6.80;;
41927;SDS011;27616;51.420;6.788;2022-08-14T07:55:48;8.35;;;7.45;;
41927;SDS011;27616;51.420;6.788;2022-08-14T07:58:14;9.18;;;8.15;;
41927;SDS011;27616;51.420;6.788;2022-08-14T08:00:44;10.20;;;8.23;;
41927;SDS011;27616;51.420;6.788;2022-08-14T08:03:10;8.70;;;7.80;;
41927;SDS011;27616;51.420;6.788;2022-08-14T08:05:38;7.90;;;7.10;;
41927;SDS011;27616;51.420;6.788;2022-08-14T08:08:06;9.05;;;7.30;;
41927;SDS011;27616;51.420;6.788;2022-08-14T08:10:33;7.93;;;7.13;;
41927;SDS011;27616;51.420;6.788;2022-08-14T08:15:31;7.18;;;6.47;;
41927;SDS011;27616;51.420;6.788;2022-08-14T08:17:59;7.30;;;6.50;;
41927;SDS011;27616;51.420;6.788;2022-08-14T08:20:29;7.18;;;6.40;;
41927;SDS011;27616;51.420;6.788;2022-08-14T08:22:57;7.60;;;6.40;;
41927;SDS011;27616;51.420;6.788;2022-08-14T08:25:24;7.40;;;6.60;;
41927;SDS011;27616;51.420;6.788;2022-08-14T08:27:59;7.87;;;6.43;;
41927;SDS011;27616;51.420;6.788;2022-08-14T08:30:28;9.85;;;7.18;;
41927;SDS011;27616;51.420;6.788;2022-08-14T08:35:23;8.13;;;7.07;;
41927;SDS011;27616;51.420;6.788;2022-08-14T08:37:51;8.35;;;7.35;;
41927;SDS011;27616;51.420;6.788;2022-08-14T08:40:24;7.97;;;7.18;;
41927;SDS011;27616;51.420;6.788;2022-08-14T08:42:51;7.82;;;7.03;;
41927;SDS011;27616;51.420;6.788;2022-08-14T08:45:18;7.78;;;6.97;;
41927;SDS011;27616;51.420;6.788;2022-08-14T08:47:46;7.97;;;7.00;;
41927;SDS011;27616;51.420;6.788;2022-08-14T08:52:47;8.63;;;7.72;;
41927;SDS011;27616;51.420;6.788;2022-08-14T08:55:15;7.50;;;6.78;;
41927;SDS011;27616;51.420;6.788;2022-08-14T08:57:52;8.13;;;6.78;;
41927;SDS011;27616;51.420;6.788;2022-08-14T09:00:29;8.25;;;7.43;;
41927;SDS011;27616;51.420;6.788;2022-08-14T09:03:00;10.63;;;7.63;;
41927;SDS011;27616;51.420;6.788;2022-08-14T09:05:27;8.50;;;7.63;;
41927;SDS011;27616;51.420;6.788;2022-08-14T09:08:09;8.27;;;7.35;;
41927;SDS011;27616;51.420;6.788;2022-08-14T09:10:43;7.85;;;7.05;;
41927;SDS011;27616;51.420;6.788;2022-08-14T09:13:09;9.05;;;7.20;;
41927;SDS011;27616;51.420;6.788;2022-08-14T09:15:38;8.10;;;7.28;;
41927;SDS011;27616;51.420;6.788;2022-08-14T09:18:05;7.72;;;6.93;;
41927;SDS011;27616;51.420;6.788;2022-08-14T09:20:32;8.10;;;7.30;;
41927;SDS011;27616;51.420;6.788;2022-08-14T09:22:58;8.52;;;7.13;;
41927;SDS011;27616;51.420;6.788;2022-08-14T09:25:25;7.57;;;6.88;;
41927;SDS011;27616;51.420;6.788;2022-08-14T09:27:51;7.40;;;6.70;;
41927;SDS011;27616;51.420;6.788;2022-08-14T09:30:17;6.97;;;6.28;;
41927;SDS011;27616;51.420;6.788;2022-08-14T09:44:05;7.50;;;6.13;;
41927;SDS011;27616;51.420;6.788;2022-08-14T09:46:50;7.00;;;6.30;;
41927;SDS011;27616;51.420;6.788;2022-08-14T09:49:30;6.93;;;6.22;;
41927;SDS011;27616;51.420;6.788;2022-08-14T09:52:15;7.00;;;6.15;;
41927;SDS011;27616;51.420;6.788;2022-08-14T09:54:45;7.40;;;6.57;;
41927;SDS011;27616;51.420;6.788;2022-08-14T09:57:25;6.95;;;6.25;;
41927;SDS011;27616;51.420;6.788;2022-08-14T09:59:52;8.02;;;6.68;;
41927;SDS011;27616;51.420;6.788;2022-08-14T10:02:25;7.55;;;5.93;;
41927;SDS011;27616;51.420;6.788;2022-08-14T10:05:05;6.55;;;5.85;;
41927;SDS011;27616;51.420;6.788;2022-08-14T10:07:55;6.10;;;5.50;;
41927;SDS011;27616;51.420;6.788;2022-08-14T10:10:28;7.65;;;5.85;;
41927;SDS011;27616;51.420;6.788;2022-08-14T10:12:56;9.77;;;6.30;;
41927;SDS011;27616;51.420;6.788;2022-08-14T10:15:24;6.72;;;6.05;;
41927;SDS011;27616;51.420;6.788;2022-08-14T10:18:08;9.95;;;6.13;;
41927;SDS011;27616;51.420;6.788;2022-08-14T10:20:39;7.03;;;6.15;;
41927;SDS011;27616;51.420;6.788;2022-08-14T10:23:27;7.05;;;5.85;;
41927;SDS011;27616;51.420;6.788;2022-08-14T10:26:04;6.32;;;5.50;;
41927;SDS011;27616;51.420;6.788;2022-08-14T10:31:20;6.18;;;5.30;;
41927;SDS011;27616;51.420;6.788;2022-08-14T10:34:05;6.70;;;5.80;;
41927;SDS011;27616;51.420;6.788;2022-08-14T10:36:35;7.00;;;6.22;;
41927;SDS011;27616;51.420;6.788;2022-08-14T10:39:16;8.35;;;7.05;;
41927;SDS011;27616;51.420;6.788;2022-08-14T10:41:44;7.68;;;6.72;;
41927;SDS011;27616;51.420;6.788;2022-08-14T10:46:40;7.63;;;6.32;;
41927;SDS011;27616;51.420;6.788;2022-08-14T10:49:29;7.57;;;6.03;;
41927;SDS011;27616;51.420;6.788;2022-08-14T10:51:55;6.88;;;5.72;;
41927;SDS011;27616;51.420;6.788;2022-08-14T10:57:09;7.68;;;5.28;;
41927;SDS011;27616;51.420;6.788;2022-08-14T10:59:45;6.60;;;6.00;;
41927;SDS011;27616;51.420;6.788;2022-08-14T11:02:18;7.72;;;6.78;;
41927;SDS011;27616;51.420;6.788;2022-08-14T11:07:38;7.80;;;6.25;;
41927;SDS011;27616;51.420;6.788;2022-08-14T11:12:41;7.65;;;6.82;;
41927;SDS011;27616;51.420;6.788;2022-08-14T11:15:15;7.90;;;6.13;;
41927;SDS011;27616;51.420;6.788;2022-08-14T11:17:46;6.47;;;5.70;;
41927;SDS011;27616;51.420;6.788;2022-08-14T11:20:14;6.75;;;6.05;;
41927;SDS011;27616;51.420;6.788;2022-08-14T11:22:42;7.88;;;6.38;;
41927;SDS011;27616;51.420;6.788;2022-08-14T11:25:11;7.47;;;5.82;;
41927;SDS011;27616;51.420;6.788;2022-08-14T11:27:40;6.82;;;6.13;;
41927;SDS011;27616;51.420;6.788;2022-08-14T11:30:12;6.65;;;5.93;;
41927;SDS011;27616;51.420;6.788;2022-08-14T11:32:42;8.95;;;7.03;;
41927;SDS011;27616;51.420;6.788;2022-08-14T11:35:13;6.40;;;5.47;;
41927;SDS011;27616;51.420;6.788;2022-08-14T11:40:30;6.75;;;5.55;;
41927;SDS011;27616;51.420;6.788;2022-08-14T11:43:01;8.18;;;6.68;;
41927;SDS011;27616;51.420;6.788;2022-08-14T11:45:30;6.95;;;6.25;;
41927;SDS011;27616;51.420;6.788;2022-08-14T11:48:14;6.53;;;5.93;;
41927;SDS011;27616;51.420;6.788;2022-08-14T11:50:42;6.10;;;5.50;;
41927;SDS011;27616;51.420;6.788;2022-08-14T11:55:46;6.60;;;5.43;;
41927;SDS011;27616;51.420;6.788;2022-08-14T11:58:18;6.25;;;5.40;;
41927;SDS011;27616;51.420;6.788;2022-08-14T12:00:53;7.70;;;6.10;;
41927;SDS011;27616;51.420;6.788;2022-08-14T12:03:41;9.65;;;7.28;;
41927;SDS011;27616;51.420;6.788;2022-08-14T12:06:11;6.28;;;5.68;;
41927;SDS011;27616;51.420;6.788;2022-08-14T12:08:39;8.27;;;6.03;;
41927;SDS011;27616;51.420;6.788;2022-08-14T12:11:08;6.53;;;5.90;;
41927;SDS011;27616;51.420;6.788;2022-08-14T12:13:38;8.95;;;7.78;;
41927;SDS011;27616;51.420;6.788;2022-08-14T12:16:05;6.55;;;5.85;;
41927;SDS011;27616;51.420;6.788;2022-08-14T12:18:34;7.43;;;6.38;;
41927;SDS011;27616;51.420;6.788;2022-08-14T12:21:15;10.23;;;7.35;;
41927;SDS011;27616;51.420;6.788;2022-08-14T12:23:41;7.38;;;6.68;;
41927;SDS011;27616;51.420;6.788;2022-08-14T12:26:09;7.68;;;6.55;;
41927;SDS011;27616;51.420;6.788;2022-08-14T12:28:41;8.57;;;5.93;;
41927;SDS011;27616;51.420;6.788;2022-08-14T12:31:12;6.85;;;5.80;;
41927;SDS011;27616;51.420;6.788;2022-08-14T12:34:03;8.00;;;6.15;;
41927;SDS011;27616;51.420;6.788;2022-08-14T12:36:31;6.38;;;5.65;;
41927;SDS011;27616;51.420;6.788;2022-08-14T12:38:58;6.20;;;5.43;;
41927;SDS011;27616;51.420;6.788;2022-08-14T12:41:26;6.35;;;5.75;;
41927;SDS011;27616;51.420;6.788;2022-08-14T12:43:58;6.53;;;5.72;;
41927;SDS011;27616;51.420;6.788;2022-08-14T12:46:30;6.05;;;5.30;;
41927;SDS011;27616;51.420;6.788;2022-08-14T12:49:01;5.82;;;5.13;;
41927;SDS011;27616;51.420;6.788;2022-08-14T12:51:33;6.10;;;5.50;;
41927;SDS011;27616;51.420;6.788;2022-08-14T12:54:12;7.07;;;5.55;;
41927;SDS011;27616;51.420;6.788;2022-08-14T12:56:40;7.10;;;6.03;;
41927;SDS011;27616;51.420;6.788;2022-08-14T12:59:06;6.90;;;5.70;;
41927;SDS011;27616;51.420;6.788;2022-08-14T13:01:33;6.05;;;5.10;;
41927;SDS011;27616;51.420;6.788;2022-08-14T13:04:06;5.95;;;5.35;;
41927;SDS011;27616;51.420;6.788;2022-08-14T13:06:38;5.72;;;5.10;;
41927;SDS011;27616;51.420;6.788;2022-08-14T13:09:06;6.40;;;5.60;;
41927;SDS011;27616;51.420;6.788;2022-08-14T13:11:51;6.43;;;5.13;;
41927;SDS011;27616;51.420;6.788;2022-08-14T13:14:22;7.35;;;6.03;;
41927;SDS011;27616;51.420;6.788;2022-08-14T13:16:54;5.93;;;5.32;;
41927;SDS011;27616;51.420;6.788;2022-08-14T13:19:22;8.88;;;7.25;;
41927;SDS011;27616;51.420;6.788;2022-08-14T13:21:52;8.57;;;6.43;;
41927;SDS011;27616;51.420;6.788;2022-08-14T13:24:20;6.82;;;6.13;;
41927;SDS011;27616;51.420;6.788;2022-08-14T13:26:51;6.22;;;5.63;;
41927;SDS011;27616;51.420;6.788;2022-08-14T13:29:26;6.70;;;6.00;;
41927;SDS011;27616;51.420;6.788;2022-08-14T13:31:53;7.28;;;5.63;;
41927;SDS011;27616;51.420;6.788;2022-08-14T13:34:23;6.38;;;5.38;;
41927;SDS011;27616;51.420;6.788;2022-08-14T13:36:51;6.85;;;5.57;;
41927;SDS011;27616;51.420;6.788;2022-08-14T13:39:20;5.88;;;5.28;;
41927;SDS011;27616;51.420;6.788;2022-08-14T13:41:49;5.70;;;5.10;;
41927;SDS011;27616;51.420;6.788;2022-08-14T13:44:15;6.65;;;5.30;;
41927;SDS011;27616;51.420;6.788;2022-08-14T13:46:45;5.82;;;5.22;;
41927;SDS011;27616;51.420;6.788;2022-08-14T13:49:12;6.70;;;5.80;;
41927;SDS011;27616;51.420;6.788;2022-08-14T13:51:39;6.18;;;5.57;;
41927;SDS011;27616;51.420;6.788;2022-08-14T13:54:14;5.95;;;5.10;;
41927;SDS011;27616;51.420;6.788;2022-08-14T13:56:45;5.57;;;4.97;;
41927;SDS011;27616;51.420;6.788;2022-08-14T13:59:12;5.75;;;4.55;;
41927;SDS011;27616;51.420;6.788;2022-08-14T14:01:39;5.80;;;4.95;;
41927;SDS011;27616;51.420;6.788;2022-08-14T14:04:08;7.00;;;4.65;;
41927;SDS011;27616;51.420;6.788;2022-08-14T14:06:40;5.35;;;4.72;;
41927;SDS011;27616;51.420;6.788;2022-08-14T14:09:11;5.25;;;4.60;;
41927;SDS011;27616;51.420;6.788;2022-08-14T14:11:40;5.65;;;4.95;;
41927;SDS011;27616;51.420;6.788;2022-08-14T14:14:07;4.70;;;4.20;;
41927;SDS011;27616;51.420;6.788;2022-08-14T14:16:36;5.40;;;4.43;;
41927;SDS011;27616;51.420;6.788;2022-08-14T14:19:04;5.20;;;4.70;;
41927;SDS011;27616;51.420;6.788;2022-08-14T14:21:31;5.57;;;4.70;;
41927;SDS011;27616;51.420;6.788;2022-08-14T14:23:58;4.90;;;4.38;;
41927;SDS011;27616;51.420;6.788;2022-08-14T14:26:25;6.10;;;5.10;;
41927;SDS011;27616;51.420;6.788;2022-08-14T14:28:55;5.07;;;4.55;;
41927;SDS011;27616;51.420;6.788;2022-08-14T14:31:22;5.38;;;4.88;;
41927;SDS011;27616;51.420;6.788;2022-08-14T14:33:51;5.80;;;5.07;;
41927;SDS011;27616;51.420;6.788;2022-08-14T14:36:21;5.60;;;4.80;;
41927;SDS011;27616;51.420;6.788;2022-08-14T14:38:51;5.75;;;4.93;;
41927;SDS011;27616;51.420;6.788;2022-08-14T14:41:19;5.85;;;4.90;;
41927;SDS011;27616;51.420;6.788;2022-08-14T14:43:48;5.82;;;5.10;;
41927;SDS011;27616;51.420;6.788;2022-08-14T14:46:16;6.15;;;5.30;;
41927;SDS011;27616;51.420;6.788;2022-08-14T14:48:44;5.97;;;5.00;;
41927;SDS011;27616;51.420;6.788;2022-08-14T14:51:14;6.53;;;5.63;;
41927;SDS011;27616;51.420;6.788;2022-08-14T14:53:41;8.98;;;5.68;;
41927;SDS011;27616;51.420;6.788;2022-08-14T14:56:09;5.32;;;4.82;;
41927;SDS011;27616;51.420;6.788;2022-08-14T14:58:36;6.43;;;5.20;;
41927;SDS011;27616;51.420;6.788;2022-08-14T15:01:03;5.75;;;4.90;;
41927;SDS011;27616;51.420;6.788;2022-08-14T15:06:01;5.45;;;4.95;;
41927;SDS011;27616;51.420;6.788;2022-08-14T15:08:27;5.97;;;5.10;;
41927;SDS011;27616;51.420;6.788;2022-08-14T15:10:57;6.00;;;5.15;;
41927;SDS011;27616;51.420;6.788;2022-08-14T15:13:24;6.60;;;5.88;;
41927;SDS011;27616;51.420;6.788;2022-08-14T15:15:52;9.10;;;6.20;;
41927;SDS011;27616;51.420;6.788;2022-08-14T15:18:21;6.10;;;5.25;;
41927;SDS011;27616;51.420;6.788;2022-08-14T15:20:50;5.50;;;4.90;;
41927;SDS011;27616;51.420;6.788;2022-08-14T15:23:19;5.18;;;4.63;;
41927;SDS011;27616;51.420;6.788;2022-08-14T15:25:47;7.60;;;6.07;;
41927;SDS011;27616;51.420;6.788;2022-08-14T15:28:13;7.05;;;5.90;;
41927;SDS011;27616;51.420;6.788;2022-08-14T15:30:41;7.07;;;5.82;;
41927;SDS011;27616;51.420;6.788;2022-08-14T15:33:10;6.68;;;5.75;;
41927;SDS011;27616;51.420;6.788;2022-08-14T15:35:37;5.93;;;5.03;;
41927;SDS011;27616;51.420;6.788;2022-08-14T15:38:03;5.20;;;4.45;;
41927;SDS011;27616;51.420;6.788;2022-08-14T15:40:36;5.43;;;4.70;;
41927;SDS011;27616;51.420;6.788;2022-08-14T15:43:04;5.90;;;5.30;;
41927;SDS011;27616;51.420;6.788;2022-08-14T15:45:35;7.93;;;5.50;;
41927;SDS011;27616;51.420;6.788;2022-08-14T15:48:04;7.47;;;5.65;;